createdAt,value
2019-03-06T00:02:16.524Z,3.70
2019-03-06T00:04:46.128Z,3.40
2019-03-06T00:07:15.821Z,3.77
2019-03-06T00:09:45.540Z,4.40
2019-03-06T00:12:15.669Z,3.70
2019-03-06T00:14:45.945Z,3.40
2019-03-06T00:17:15.724Z,4.10
2019-03-06T00:19:45.403Z,4.40
2019-03-06T00:22:15.200Z,3.60
2019-03-06T00:24:45.225Z,4.50
2019-03-06T00:27:15.065Z,4.57
2019-03-06T00:29:44.996Z,4.97
2019-03-06T00:32:15.078Z,5.37
2019-03-06T00:34:44.892Z,4.70
2019-03-06T00:37:14.920Z,5.40
2019-03-06T00:39:52.502Z,4.30
2019-03-06T00:42:22.219Z,5.03
2019-03-06T00:44:51.919Z,5.73
2019-03-06T00:47:22.445Z,5.20
2019-03-06T00:49:52.540Z,6.03
2019-03-06T00:52:22.217Z,4.80
2019-03-06T00:54:51.868Z,6.33
2019-03-06T00:57:22.582Z,6.30
2019-03-06T00:59:52.997Z,5.73
2019-03-06T01:02:23.099Z,6.23
2019-03-06T01:04:53.137Z,6.27
2019-03-06T01:07:23.166Z,6.43
2019-03-06T01:09:52.839Z,6.50
2019-03-06T01:12:22.911Z,6.27
2019-03-06T01:14:52.898Z,6.17
2019-03-06T01:17:22.944Z,6.23
2019-03-06T01:19:52.733Z,6.60
2019-03-06T01:22:22.741Z,6.30
2019-03-06T01:24:52.872Z,6.90
2019-03-06T01:27:23.055Z,6.10
2019-03-06T01:29:52.699Z,6.80
2019-03-06T01:32:22.522Z,6.43
2019-03-06T01:35:10.240Z,7.30
2019-03-06T01:37:57.296Z,7.30
2019-03-06T01:40:55.035Z,7.83
2019-03-06T01:43:29.686Z,7.27
2019-03-06T01:46:00.013Z,7.20
2019-03-06T01:48:29.690Z,7.10
2019-03-06T01:50:59.339Z,9.13
2019-03-06T01:53:29.309Z,9.30
2019-03-06T01:55:59.310Z,8.90
2019-03-06T01:58:29.408Z,8.70
2019-03-06T02:00:59.237Z,9.60
2019-03-06T02:03:29.588Z,9.50
2019-03-06T02:05:59.526Z,8.90
2019-03-06T02:08:29.271Z,9.27
2019-03-06T02:10:59.176Z,9.50
2019-03-06T02:13:29.241Z,9.83
2019-03-06T02:15:58.933Z,10.23
2019-03-06T02:18:29.476Z,9.63
2019-03-06T02:20:59.553Z,10.47
2019-03-06T02:23:29.487Z,8.90
2019-03-06T02:25:59.548Z,9.10
2019-03-06T02:28:29.326Z,9.33
2019-03-06T02:30:59.424Z,9.30
2019-03-06T02:33:29.462Z,10.40
2019-03-06T02:35:59.106Z,10.80
2019-03-06T02:38:29.151Z,10.43
2019-03-06T02:40:59.113Z,10.07
2019-03-06T02:43:29.197Z,10.50
2019-03-06T02:45:59.210Z,10.40
2019-03-06T02:48:29.307Z,10.27
2019-03-06T02:50:58.952Z,11.03
2019-03-06T02:53:28.672Z,11.97
2019-03-06T02:55:58.628Z,12.40
2019-03-06T02:58:55.664Z,12.30
2019-03-06T03:01:44.272Z,11.50
2019-03-06T03:04:25.250Z,12.23
2019-03-06T03:07:04.052Z,11.57
2019-03-06T03:09:34.498Z,10.83
2019-03-06T03:12:04.257Z,10.67
2019-03-06T03:14:34.609Z,12.10
2019-03-06T03:17:04.686Z,11.40
2019-03-06T03:19:34.660Z,11.57
2019-03-06T03:22:04.714Z,10.97
2019-03-06T03:24:34.354Z,11.13
2019-03-06T03:27:04.687Z,11.20
2019-03-06T03:29:34.666Z,12.10
2019-03-06T03:32:04.338Z,11.30
2019-03-06T03:34:34.389Z,11.33
2019-03-06T03:37:04.220Z,12.33
2019-03-06T03:39:33.779Z,11.77
2019-03-06T03:42:03.469Z,13.60
2019-03-06T03:44:33.332Z,12.00
2019-03-06T03:47:03.623Z,13.10
2019-03-06T03:49:33.653Z,13.03
2019-03-06T03:52:03.323Z,13.27
2019-03-06T03:54:33.009Z,13.43
2019-03-06T03:57:03.347Z,13.00
2019-03-06T03:59:33.763Z,11.73
2019-03-06T04:02:03.791Z,14.60
2019-03-06T04:04:34.231Z,12.77
2019-03-06T04:07:04.327Z,12.90
2019-03-06T04:09:34.033Z,14.13
2019-03-06T04:12:03.698Z,12.40
2019-03-06T04:14:33.355Z,13.50
2019-03-06T04:17:03.385Z,13.83
2019-03-06T04:19:33.052Z,13.70
2019-03-06T04:22:03.245Z,15.47
2019-03-06T04:24:32.905Z,14.27
2019-03-06T04:27:02.588Z,14.43
2019-03-06T04:29:32.177Z,13.40
2019-03-06T04:32:02.181Z,13.50
2019-03-06T04:34:32.240Z,12.63
2019-03-06T04:37:01.973Z,14.50
2019-03-06T04:39:31.657Z,13.37
2019-03-06T04:42:03.099Z,12.73
2019-03-06T04:44:34.568Z,13.73
2019-03-06T04:47:04.518Z,13.47
2019-03-06T04:49:34.151Z,13.70
2019-03-06T04:52:03.715Z,12.90
2019-03-06T04:54:33.351Z,13.70
2019-03-06T04:57:03.440Z,13.63
2019-03-06T04:59:33.622Z,13.80
2019-03-06T05:02:03.647Z,13.80
2019-03-06T05:04:33.349Z,12.20
2019-03-06T05:07:03.375Z,13.27
2019-03-06T05:09:33.280Z,13.50
2019-03-06T05:12:03.111Z,12.03
2019-03-06T05:14:33.127Z,11.30
2019-03-06T05:17:27.916Z,11.70
2019-03-06T05:19:57.566Z,11.37
2019-03-06T05:22:27.787Z,12.40
2019-03-06T05:24:57.429Z,10.80
2019-03-06T05:27:27.275Z,10.87
2019-03-06T05:29:57.419Z,9.40
2019-03-06T05:32:34.708Z,10.33
2019-03-06T05:35:10.715Z,8.63
2019-03-06T05:38:12.714Z,10.17
2019-03-06T05:40:43.386Z,11.13
2019-03-06T05:43:13.169Z,9.80
2019-03-06T05:45:43.390Z,9.10
2019-03-06T05:48:12.915Z,9.70
2019-03-06T05:50:42.766Z,10.63
2019-03-06T05:53:12.787Z,10.50
2019-03-06T05:55:42.891Z,9.47
2019-03-06T05:58:12.824Z,9.80
2019-03-06T06:00:42.455Z,9.90
2019-03-06T06:03:12.515Z,11.83
2019-03-06T06:05:42.580Z,10.77
2019-03-06T06:08:12.264Z,12.33
2019-03-06T06:10:41.917Z,9.93
2019-03-06T06:13:11.958Z,11.77
2019-03-06T06:15:43.107Z,10.53
2019-03-06T06:18:13.052Z,9.87
2019-03-06T06:20:45.594Z,10.50
2019-03-06T06:23:34.123Z,10.80
2019-03-06T06:26:04.127Z,11.37
2019-03-06T06:28:34.398Z,9.87
2019-03-06T06:31:04.504Z,9.60
2019-03-06T06:33:34.199Z,10.23
2019-03-06T06:36:04.356Z,9.07
2019-03-06T06:38:34.493Z,10.17
2019-03-06T06:41:04.414Z,10.43
2019-03-06T06:43:34.519Z,10.70
2019-03-06T06:46:04.190Z,9.70
2019-03-06T06:48:33.867Z,10.43
2019-03-06T06:51:47.894Z,11.13
2019-03-06T06:54:26.703Z,11.47
2019-03-06T06:57:46.088Z,11.10
2019-03-06T07:01:06.030Z,11.63
2019-03-06T07:04:23.568Z,11.97
2019-03-06T07:07:11.231Z,10.77
2019-03-06T07:10:02.852Z,10.07
2019-03-06T07:13:17.411Z,10.33
2019-03-06T07:16:18.675Z,10.50
2019-03-06T07:19:19.498Z,10.80
2019-03-06T07:22:17.629Z,9.17
2019-03-06T07:25:12.472Z,9.27
2019-03-06T07:27:48.996Z,10.03
2019-03-06T07:30:28.592Z,9.90
2019-03-06T07:33:36.173Z,8.83
2019-03-06T07:36:31.607Z,9.20
2019-03-06T07:39:18.076Z,9.30
2019-03-06T07:42:05.533Z,7.90
2019-03-06T07:44:53.187Z,8.93
2019-03-06T07:47:42.154Z,8.10
2019-03-06T07:50:28.187Z,9.77
2019-03-06T07:54:03.028Z,8.63
2019-03-06T07:56:36.532Z,8.60
2019-03-06T07:59:06.405Z,9.43
2019-03-06T08:01:45.217Z,9.20
2019-03-06T08:04:16.742Z,8.80
2019-03-06T08:07:01.189Z,9.00
2019-03-06T08:09:31.395Z,7.70
2019-03-06T08:12:26.033Z,8.83
2019-03-06T08:15:17.830Z,7.37
2019-03-06T08:18:15.619Z,7.03
2019-03-06T08:21:03.089Z,7.30
2019-03-06T08:23:55.154Z,6.30
2019-03-06T08:26:25.452Z,6.80
2019-03-06T08:28:55.462Z,7.77
2019-03-06T08:31:34.846Z,6.80
2019-03-06T08:34:04.697Z,5.87
2019-03-06T08:36:34.563Z,6.83
2019-03-06T08:39:13.687Z,5.60
2019-03-06T08:41:43.592Z,7.60
2019-03-06T08:44:13.490Z,6.23
2019-03-06T08:46:59.156Z,7.67
2019-03-06T08:49:51.081Z,6.13
2019-03-06T08:52:45.844Z,6.33
2019-03-06T08:55:33.069Z,6.70
2019-03-06T08:58:24.990Z,5.63
2019-03-06T09:01:18.481Z,5.40
2019-03-06T09:04:06.309Z,4.80
2019-03-06T09:06:53.654Z,4.87
2019-03-06T09:09:33.602Z,5.17
2019-03-06T09:12:22.260Z,4.23
2019-03-06T09:15:09.055Z,4.80
2019-03-06T09:18:08.910Z,3.70
2019-03-06T09:20:57.520Z,3.80
2019-03-06T09:24:04.115Z,3.90
2019-03-06T09:27:04.783Z,4.00
2019-03-06T09:29:56.552Z,3.30
2019-03-06T09:32:44.080Z,3.83
2019-03-06T09:35:33.110Z,3.27
2019-03-06T09:38:20.207Z,3.87
2019-03-06T09:41:12.864Z,3.37
2019-03-06T09:43:53.464Z,3.50
2019-03-06T09:46:35.316Z,3.60
2019-03-06T09:49:39.633Z,3.50
2019-03-06T09:52:31.709Z,3.03
2019-03-06T09:55:08.442Z,2.70
2019-03-06T09:58:00.190Z,2.90
2019-03-06T10:00:54.860Z,3.27
2019-03-06T10:03:36.373Z,2.33
2019-03-06T10:06:15.910Z,2.77
2019-03-06T10:09:03.347Z,2.40
2019-03-06T10:11:58.451Z,2.30
2019-03-06T10:14:35.283Z,2.90
2019-03-06T10:17:18.759Z,3.10
2019-03-06T10:20:02.250Z,2.60
2019-03-06T10:22:32.056Z,2.57
2019-03-06T10:25:02.246Z,2.77
2019-03-06T10:27:32.015Z,2.63
2019-03-06T10:30:02.189Z,2.40
2019-03-06T10:32:32.479Z,2.80
2019-03-06T10:35:02.648Z,2.27
2019-03-06T10:37:32.528Z,2.20
2019-03-06T10:40:02.407Z,1.90
2019-03-06T10:42:32.192Z,2.40
2019-03-06T10:45:01.988Z,2.07
2019-03-06T10:47:32.042Z,2.77
2019-03-06T10:50:01.727Z,2.40
2019-03-06T10:52:31.695Z,3.20
2019-03-06T10:55:01.561Z,2.47
2019-03-06T10:57:31.279Z,2.17
2019-03-06T11:00:01.543Z,2.50
2019-03-06T11:02:31.698Z,2.80
2019-03-06T11:05:07.617Z,2.87
2019-03-06T11:07:37.238Z,2.50
2019-03-06T11:10:08.089Z,3.00
2019-03-06T11:12:38.327Z,2.33
2019-03-06T11:15:09.377Z,2.37
2019-03-06T11:17:39.148Z,2.27
2019-03-06T11:20:12.111Z,2.60
2019-03-06T11:22:41.763Z,2.83
2019-03-06T11:25:11.982Z,2.53
2019-03-06T11:27:41.819Z,2.47
2019-03-06T11:30:17.009Z,2.40
2019-03-06T11:32:54.263Z,3.10
2019-03-06T11:35:19.937Z,2.60
2019-03-06T11:37:50.060Z,2.53
2019-03-06T11:40:20.266Z,2.70
2019-03-06T11:42:50.377Z,2.90
2019-03-06T11:45:20.629Z,2.57
2019-03-06T11:47:50.442Z,3.07
2019-03-06T11:50:20.895Z,2.53
2019-03-06T11:52:51.169Z,3.10
2019-03-06T11:55:22.181Z,3.47
2019-03-06T11:57:51.861Z,2.83
2019-03-06T12:00:28.230Z,2.80
2019-03-06T12:02:58.427Z,2.40
2019-03-06T12:05:28.648Z,2.40
2019-03-06T12:07:58.433Z,2.23
2019-03-06T12:10:29.261Z,2.80
2019-03-06T12:13:00.020Z,2.13
2019-03-06T12:15:30.122Z,2.27
2019-03-06T12:18:00.466Z,2.80
2019-03-06T12:20:30.429Z,2.83
2019-03-06T12:23:01.040Z,2.63
2019-03-06T12:25:31.244Z,2.37
2019-03-06T12:28:00.896Z,3.47
2019-03-06T12:30:30.834Z,3.07
2019-03-06T12:33:21.822Z,2.80
2019-03-06T12:35:52.473Z,2.20
2019-03-06T12:38:23.342Z,2.50
2019-03-06T12:40:53.356Z,2.33
2019-03-06T12:43:23.339Z,2.30
2019-03-06T12:46:31.148Z,2.40
2019-03-06T12:49:06.060Z,2.70
2019-03-06T12:51:37.090Z,1.90
2019-03-06T12:54:08.317Z,2.20
2019-03-06T12:56:38.270Z,2.60
2019-03-06T12:59:08.383Z,2.60
2019-03-06T13:01:39.253Z,2.73
2019-03-06T13:04:09.318Z,2.50
2019-03-06T13:06:39.165Z,3.00
2019-03-06T13:09:21.617Z,2.67
2019-03-06T13:11:51.887Z,3.23
2019-03-06T13:14:21.953Z,2.20
2019-03-06T13:16:52.393Z,2.53
2019-03-06T13:19:22.399Z,2.80
2019-03-06T13:21:52.229Z,3.03
2019-03-06T13:24:22.145Z,2.30
2019-03-06T13:26:52.153Z,2.60
2019-03-06T13:29:22.376Z,3.17
2019-03-06T13:31:52.727Z,2.60
2019-03-06T13:34:51.375Z,2.43
2019-03-06T13:37:22.118Z,2.70
2019-03-06T13:39:52.025Z,2.23
2019-03-06T13:42:22.558Z,3.63
2019-03-06T13:44:52.750Z,2.63
2019-03-06T13:47:22.899Z,2.23
2019-03-06T13:49:52.730Z,2.90
2019-03-06T13:52:23.170Z,2.30
2019-03-06T13:54:53.447Z,1.90
2019-03-06T13:57:23.385Z,2.77
2019-03-06T13:59:53.400Z,2.60
2019-03-06T14:02:23.584Z,2.57
2019-03-06T14:04:53.708Z,2.50
2019-03-06T14:07:23.924Z,2.47
2019-03-06T14:09:54.271Z,2.93
2019-03-06T14:12:24.212Z,3.13
2019-03-06T14:14:53.898Z,3.03
2019-03-06T14:17:23.909Z,2.87
2019-03-06T14:19:53.741Z,2.73
2019-03-06T14:22:23.930Z,2.30
2019-03-06T14:24:55.498Z,2.60
2019-03-06T14:27:25.291Z,2.43
2019-03-06T14:29:55.322Z,3.30
2019-03-06T14:32:25.115Z,3.27
2019-03-06T14:34:55.362Z,3.30
2019-03-06T14:37:25.160Z,2.60
2019-03-06T14:39:54.962Z,2.90
2019-03-06T14:42:25.163Z,2.60
2019-03-06T14:44:55.219Z,2.80
2019-03-06T14:47:25.488Z,3.13
2019-03-06T14:49:55.764Z,3.40
2019-03-06T14:52:25.766Z,2.97
2019-03-06T14:54:56.487Z,2.53
2019-03-06T14:57:26.269Z,3.10
2019-03-06T14:59:56.442Z,2.80
2019-03-06T15:02:26.225Z,2.80
2019-03-06T15:04:55.941Z,4.43
2019-03-06T15:07:25.860Z,2.63
2019-03-06T15:09:55.877Z,3.13
2019-03-06T15:12:25.761Z,2.60
2019-03-06T15:14:55.603Z,3.00
2019-03-06T15:17:25.606Z,2.33
2019-03-06T15:19:55.394Z,3.07
2019-03-06T15:22:25.222Z,3.10
2019-03-06T15:24:55.036Z,2.70
2019-03-06T15:27:24.865Z,2.80
2019-03-06T15:29:54.772Z,3.50
2019-03-06T15:32:24.765Z,3.63
2019-03-06T15:34:54.905Z,3.20
2019-03-06T15:37:24.985Z,2.90
2019-03-06T15:39:55.224Z,3.77
2019-03-06T15:42:25.570Z,2.97
2019-03-06T15:44:55.501Z,2.43
2019-03-06T15:47:33.366Z,2.50
2019-03-06T15:49:57.281Z,3.50
2019-03-06T15:52:27.190Z,3.50
2019-03-06T15:54:57.317Z,3.00
2019-03-06T15:57:27.769Z,3.57
2019-03-06T15:59:57.966Z,2.80
2019-03-06T16:02:29.220Z,3.27
2019-03-06T16:04:59.084Z,3.27
2019-03-06T16:07:28.859Z,2.50
2019-03-06T16:09:58.706Z,3.03
2019-03-06T16:12:28.945Z,2.70
2019-03-06T16:14:58.962Z,2.90
2019-03-06T16:17:28.860Z,4.40
2019-03-06T16:19:59.595Z,2.87
2019-03-06T16:22:29.540Z,2.73
2019-03-06T16:25:00.096Z,2.60
2019-03-06T16:27:30.150Z,2.43
2019-03-06T16:30:00.657Z,2.33
2019-03-06T16:32:30.874Z,2.77
2019-03-06T16:35:00.942Z,2.33
2019-03-06T16:37:31.230Z,3.00
2019-03-06T16:40:01.262Z,2.70
2019-03-06T16:42:31.365Z,2.80
2019-03-06T16:45:01.589Z,2.90
2019-03-06T16:47:31.485Z,2.90
2019-03-06T16:50:01.296Z,3.47
2019-03-06T16:52:31.313Z,2.77
2019-03-06T16:55:01.643Z,3.27
2019-03-06T16:57:31.559Z,3.27
2019-03-06T17:00:01.250Z,4.47
2019-03-06T17:02:31.172Z,4.23
2019-03-06T17:05:01.494Z,3.57
2019-03-06T17:07:31.286Z,2.93
2019-03-06T17:10:01.291Z,3.30
2019-03-06T17:12:32.029Z,3.53
2019-03-06T17:15:02.214Z,3.70
2019-03-06T17:17:32.169Z,3.63
2019-03-06T17:20:02.026Z,3.57
2019-03-06T17:22:32.116Z,4.23
2019-03-06T17:25:02.246Z,3.93
2019-03-06T17:27:32.035Z,5.20
2019-03-06T17:30:01.746Z,3.87
2019-03-06T17:32:31.667Z,4.17
2019-03-06T17:35:01.785Z,4.97
2019-03-06T17:37:31.999Z,4.27
2019-03-06T17:40:02.047Z,4.37
2019-03-06T17:42:32.794Z,4.47
2019-03-06T17:45:02.762Z,4.77
2019-03-06T17:47:32.874Z,4.53
2019-03-06T17:50:02.750Z,3.77
2019-03-06T17:52:32.912Z,3.53
2019-03-06T17:55:02.710Z,4.20
2019-03-06T17:57:33.069Z,4.43
2019-03-06T18:00:04.453Z,4.20
2019-03-06T18:02:34.625Z,3.83
2019-03-06T18:05:05.081Z,4.20
2019-03-06T18:07:34.981Z,3.80
2019-03-06T18:10:05.384Z,3.30
2019-03-06T18:12:35.523Z,4.87
2019-03-06T18:15:06.434Z,4.00
2019-03-06T18:17:36.555Z,3.70
2019-03-06T18:20:07.184Z,3.93
2019-03-06T18:22:37.814Z,3.53
2019-03-06T18:25:10.144Z,3.70
2019-03-06T18:27:41.320Z,3.57
2019-03-06T18:30:13.404Z,3.50
2019-03-06T18:32:43.679Z,3.50
2019-03-06T18:35:14.436Z,3.30
2019-03-06T18:37:44.450Z,3.10
2019-03-06T18:40:16.413Z,3.90
2019-03-06T18:42:46.345Z,4.10
2019-03-06T18:45:17.264Z,3.40
2019-03-06T18:47:47.402Z,4.10
2019-03-06T18:50:18.509Z,3.30
2019-03-06T18:52:48.474Z,4.20
2019-03-06T18:55:19.290Z,3.67
2019-03-06T18:57:49.110Z,3.53
2019-03-06T19:00:20.718Z,4.30
2019-03-06T19:02:50.568Z,3.50
2019-03-06T19:05:20.920Z,3.30
2019-03-06T19:07:51.211Z,4.40
2019-03-06T19:10:21.423Z,3.13
2019-03-06T19:12:51.956Z,3.80
2019-03-06T19:15:22.140Z,3.57
2019-03-06T19:17:52.299Z,3.60
2019-03-06T19:20:22.951Z,3.30
2019-03-06T19:22:53.907Z,3.37
2019-03-06T19:25:23.858Z,3.93
2019-03-06T19:27:54.291Z,3.93
2019-03-06T19:30:25.490Z,3.40
2019-03-06T19:32:55.473Z,2.80
2019-03-06T19:35:26.076Z,3.63
2019-03-06T19:37:56.592Z,3.57
2019-03-06T19:40:26.852Z,3.20
2019-03-06T19:42:56.953Z,3.57
2019-03-06T19:45:27.306Z,3.13
2019-03-06T19:47:57.699Z,3.27
2019-03-06T19:50:27.808Z,4.13
2019-03-06T19:52:59.434Z,3.30
2019-03-06T19:55:29.305Z,3.90
2019-03-06T19:58:01.098Z,3.47
2019-03-06T20:00:32.076Z,3.93
2019-03-06T20:03:02.836Z,4.00
2019-03-06T20:05:36.517Z,3.97
2019-03-06T20:08:09.718Z,3.97
2019-03-06T20:10:40.521Z,4.43
2019-03-06T20:13:10.850Z,3.93
2019-03-06T20:15:41.262Z,3.77
2019-03-06T20:18:12.494Z,4.40
2019-03-06T20:20:43.046Z,4.43
2019-03-06T20:23:12.968Z,4.60
2019-03-06T20:25:43.811Z,4.50
2019-03-06T20:28:14.661Z,4.30
2019-03-06T20:30:44.478Z,4.83
2019-03-06T20:33:14.346Z,4.27
2019-03-06T20:35:44.390Z,5.33
2019-03-06T20:38:14.804Z,4.70
2019-03-06T20:40:45.447Z,4.57
2019-03-06T20:43:15.442Z,4.57
2019-03-06T20:45:46.368Z,4.70
2019-03-06T20:48:16.210Z,4.63
2019-03-06T20:50:46.248Z,4.17
2019-03-06T20:53:16.426Z,4.87
2019-03-06T20:55:46.561Z,4.73
2019-03-06T20:58:16.644Z,4.60
2019-03-06T21:00:46.446Z,4.83
2019-03-06T21:03:16.864Z,4.57
2019-03-06T21:05:47.185Z,4.57
2019-03-06T21:08:17.250Z,3.90
2019-03-06T21:10:47.472Z,4.73
2019-03-06T21:13:17.290Z,4.87
2019-03-06T21:15:47.179Z,4.70
2019-03-06T21:18:17.119Z,4.83
2019-03-06T21:20:47.035Z,5.00
2019-03-06T21:23:16.938Z,5.07
2019-03-06T21:25:47.443Z,4.33
2019-03-06T21:28:17.562Z,4.00
2019-03-06T21:30:47.891Z,4.27
2019-03-06T21:33:17.726Z,4.97
2019-03-06T21:35:47.911Z,4.73
2019-03-06T21:38:18.182Z,4.37
2019-03-06T21:40:47.945Z,4.53
2019-03-06T21:43:17.786Z,3.90
2019-03-06T21:45:47.587Z,4.63
2019-03-06T21:48:17.711Z,4.77
2019-03-06T21:50:47.944Z,4.73
2019-03-06T21:53:18.257Z,4.50
2019-03-06T21:55:48.385Z,4.30
2019-03-06T21:58:18.597Z,4.67
2019-03-06T22:00:48.534Z,5.53
2019-03-06T22:03:18.333Z,4.50
2019-03-06T22:05:48.556Z,5.27
2019-03-06T22:08:18.739Z,4.57
2019-03-06T22:10:48.546Z,5.57
2019-03-06T22:13:18.663Z,6.10
2019-03-06T22:15:49.178Z,5.97
2019-03-06T22:18:19.141Z,5.13
2019-03-06T22:20:49.407Z,5.53
2019-03-06T22:23:19.487Z,5.13
2019-03-06T22:25:49.681Z,5.30
2019-03-06T22:28:19.986Z,4.37
2019-03-06T22:30:49.801Z,4.50
2019-03-06T22:33:20.054Z,4.80
2019-03-06T22:35:50.250Z,5.30
2019-03-06T22:38:20.350Z,5.77
2019-03-06T22:40:51.436Z,5.50
2019-03-06T22:43:21.486Z,4.37
2019-03-06T22:45:51.484Z,5.10
2019-03-06T22:48:21.538Z,4.30
2019-03-06T22:50:51.977Z,5.03
2019-03-06T22:53:22.233Z,4.50
2019-03-06T22:55:52.023Z,4.87
2019-03-06T22:58:22.441Z,4.77
2019-03-06T23:01:02.414Z,5.23
2019-03-06T23:03:32.382Z,4.70
2019-03-06T23:06:02.549Z,5.77
2019-03-06T23:08:32.495Z,4.97
2019-03-06T23:11:02.763Z,4.20
2019-03-06T23:13:32.859Z,4.30
2019-03-06T23:16:02.666Z,4.33
2019-03-06T23:18:32.774Z,4.70
2019-03-06T23:21:03.238Z,4.13
2019-03-06T23:23:33.034Z,5.03
2019-03-06T23:26:02.971Z,4.53
2019-03-06T23:28:32.853Z,4.03
2019-03-06T23:31:03.744Z,4.83
2019-03-06T23:33:33.501Z,5.03
2019-03-06T23:36:03.445Z,4.90
2019-03-06T23:38:34.688Z,5.30
2019-03-06T23:41:04.897Z,4.70
2019-03-06T23:43:35.094Z,4.70
2019-03-06T23:46:05.050Z,4.73
2019-03-06T23:48:35.134Z,5.90
2019-03-06T23:51:10.278Z,4.90
2019-03-06T23:53:59.804Z,4.57
2019-03-06T23:56:29.811Z,4.77
2019-03-06T23:59:00.116Z,5.80
